createdAt,value
2017-11-01T00:02:13.963Z,6.10
2017-11-01T00:04:44.059Z,6.03
2017-11-01T00:07:13.266Z,6.40
2017-11-01T00:09:42.025Z,5.53
2017-11-01T00:12:10.573Z,6.40
2017-11-01T00:14:39.188Z,5.90
2017-11-01T00:17:07.744Z,4.43
2017-11-01T00:19:36.634Z,4.93
2017-11-01T00:22:05.530Z,5.33
2017-11-01T00:24:34.176Z,5.93
2017-11-01T00:27:03.510Z,5.70
2017-11-01T00:29:32.311Z,6.10
2017-11-01T00:32:01.040Z,5.00
2017-11-01T00:34:30.423Z,6.00
2017-11-01T00:36:59.150Z,7.00
2017-11-01T00:39:27.721Z,5.60
2017-11-01T00:41:57.347Z,7.20
2017-11-01T00:44:26.264Z,5.90
2017-11-01T00:46:54.811Z,6.20
2017-11-01T00:49:24.085Z,5.03
2017-11-01T00:51:52.991Z,6.10
2017-11-01T00:54:22.346Z,4.23
2017-11-01T00:56:50.958Z,6.13
2017-11-01T00:59:19.813Z,7.00
2017-11-01T01:01:48.427Z,5.80
2017-11-01T01:04:16.990Z,7.00
2017-11-01T01:06:45.734Z,5.90
2017-11-01T01:09:14.557Z,5.80
2017-11-01T01:11:43.104Z,4.03
2017-11-01T01:14:11.797Z,4.87
2017-11-01T01:16:40.346Z,5.77
2017-11-01T01:19:08.917Z,6.60
2017-11-01T01:21:37.744Z,6.90
2017-11-01T01:24:06.334Z,6.50
2017-11-01T01:26:34.891Z,6.13
2017-11-01T01:29:04.289Z,6.77
2017-11-01T01:31:33.622Z,5.13
2017-11-01T01:34:02.363Z,7.00
2017-11-01T01:36:31.011Z,6.30
2017-11-01T01:38:59.576Z,7.20
2017-11-01T01:41:28.302Z,6.83
2017-11-01T01:43:57.430Z,5.80
2017-11-01T01:46:26.847Z,7.50
2017-11-01T01:48:55.592Z,7.33
2017-11-01T01:51:24.359Z,6.67
2017-11-01T01:53:52.959Z,9.67
2017-11-01T01:56:21.547Z,8.57
2017-11-01T01:58:50.698Z,8.80
2017-11-01T02:01:19.350Z,8.70
2017-11-01T02:03:47.995Z,7.93
2017-11-01T02:06:16.956Z,9.20
2017-11-01T02:08:45.566Z,8.47
2017-11-01T02:11:14.237Z,8.17
2017-11-01T02:13:42.896Z,6.80
2017-11-01T02:16:12.264Z,8.80
2017-11-01T02:18:40.838Z,9.57
2017-11-01T02:21:10.353Z,9.80
2017-11-01T02:23:39.202Z,7.80
2017-11-01T02:26:07.812Z,7.00
2017-11-01T02:28:36.635Z,8.73
2017-11-01T02:31:05.293Z,9.07
2017-11-01T02:33:33.916Z,7.30
2017-11-01T02:36:03.441Z,6.27
2017-11-01T02:38:32.087Z,5.77
2017-11-01T02:41:00.749Z,6.80
2017-11-01T02:43:30.619Z,7.50
2017-11-01T02:45:59.484Z,8.10
2017-11-01T02:48:28.153Z,5.30
2017-11-01T02:50:56.814Z,9.30
2017-11-01T02:53:25.463Z,7.73
2017-11-01T02:55:54.119Z,9.07
2017-11-01T02:58:22.822Z,8.60
2017-11-01T03:00:52.278Z,4.70
2017-11-01T03:03:20.914Z,8.87
2017-11-01T03:05:50.670Z,5.20
2017-11-01T03:08:19.283Z,6.10
2017-11-01T03:10:47.923Z,8.17
2017-11-01T03:13:16.945Z,6.00
2017-11-01T03:15:45.577Z,8.23
2017-11-01T03:18:14.455Z,6.90
2017-11-01T03:20:43.181Z,7.20
2017-11-01T03:23:11.820Z,8.70
2017-11-01T03:25:40.476Z,9.23
2017-11-01T03:28:09.196Z,3.70
2017-11-01T03:30:38.461Z,7.73
2017-11-01T03:33:07.644Z,8.37
2017-11-01T03:35:36.538Z,8.23
2017-11-01T03:38:05.501Z,5.80
2017-11-01T03:40:34.178Z,6.77
2017-11-01T03:43:03.110Z,7.67
2017-11-01T03:45:31.764Z,5.90
2017-11-01T03:48:00.561Z,8.87
2017-11-01T03:50:29.560Z,6.60
2017-11-01T03:52:59.148Z,5.63
2017-11-01T03:55:27.770Z,5.97
2017-11-01T03:57:56.551Z,6.60
2017-11-01T04:00:25.210Z,5.13
2017-11-01T04:02:54.101Z,4.93
2017-11-01T04:05:23.129Z,8.87
2017-11-01T04:07:52.569Z,8.20
2017-11-01T04:10:21.974Z,7.90
2017-11-01T04:12:51.009Z,7.27
2017-11-01T04:15:19.949Z,8.73
2017-11-01T04:17:48.578Z,9.10
2017-11-01T04:20:18.186Z,4.50
2017-11-01T04:22:46.937Z,8.87
2017-11-01T04:25:15.547Z,6.53
2017-11-01T04:27:44.526Z,7.57
2017-11-01T04:30:13.909Z,8.77
2017-11-01T04:32:42.544Z,8.13
2017-11-01T04:35:11.218Z,7.37
2017-11-01T04:37:39.869Z,7.40
2017-11-01T04:40:13.168Z,8.63
2017-11-01T04:42:41.864Z,3.90
2017-11-01T04:45:11.308Z,5.80
2017-11-01T04:47:42.031Z,6.87
2017-11-01T04:50:11.173Z,6.17
2017-11-01T04:52:40.730Z,4.30
2017-11-01T04:55:12.698Z,7.10
2017-11-01T04:57:41.356Z,8.70
2017-11-01T05:00:15.933Z,6.07
2017-11-01T05:02:44.701Z,8.07
2017-11-01T05:05:15.230Z,8.50
2017-11-01T05:07:44.933Z,7.27
2017-11-01T05:10:16.430Z,9.00
2017-11-01T05:12:45.891Z,7.40
2017-11-01T05:15:14.615Z,7.80
2017-11-01T05:17:43.330Z,6.97
2017-11-01T05:20:13.310Z,8.53
2017-11-01T05:22:41.941Z,7.90
2017-11-01T05:25:16.723Z,5.10
2017-11-01T05:27:45.367Z,7.10
2017-11-01T05:30:14.060Z,8.53
2017-11-01T05:32:42.962Z,2.93
2017-11-01T05:35:11.743Z,5.50
2017-11-01T05:37:40.417Z,2.23
2017-11-01T05:40:09.208Z,7.00
2017-11-01T05:42:37.845Z,6.53
2017-11-01T05:45:06.437Z,4.23
2017-11-01T05:47:35.270Z,7.63
2017-11-01T05:50:03.951Z,6.37
2017-11-01T05:52:32.897Z,7.00
2017-11-01T05:55:01.831Z,6.23
2017-11-01T05:57:30.450Z,6.07
2017-11-01T06:00:00.131Z,5.63
2017-11-01T06:02:28.833Z,5.40
2017-11-01T06:04:57.513Z,8.00
2017-11-01T06:07:26.217Z,7.13
2017-11-01T06:09:58.195Z,7.37
2017-11-01T06:12:27.025Z,5.93
2017-11-01T06:14:55.856Z,7.80
2017-11-01T06:17:24.600Z,7.37
2017-11-01T06:19:53.232Z,7.40
2017-11-01T06:22:21.921Z,7.80
2017-11-01T06:24:50.930Z,8.10
2017-11-01T06:27:19.578Z,7.53
2017-11-01T06:29:48.322Z,6.00
2017-11-01T06:32:17.359Z,6.00
2017-11-01T06:34:46.935Z,8.13
2017-11-01T06:37:15.760Z,7.33
2017-11-01T06:39:44.918Z,8.23
2017-11-01T06:42:14.360Z,7.43
2017-11-01T06:44:43.048Z,6.60
2017-11-01T06:47:11.672Z,7.63
2017-11-01T06:49:41.048Z,6.93
2017-11-01T06:52:09.712Z,9.90
2017-11-01T06:54:38.715Z,7.40
2017-11-01T06:57:07.310Z,8.00
2017-11-01T06:59:36.655Z,8.60
2017-11-01T07:02:06.484Z,7.83
2017-11-01T07:04:35.062Z,7.20
2017-11-01T07:07:04.460Z,7.80
2017-11-01T07:09:51.686Z,8.40
2017-11-01T07:12:20.556Z,7.40
2017-11-01T07:14:49.996Z,7.97
2017-11-01T07:17:18.794Z,8.93
2017-11-01T07:19:47.395Z,9.03
2017-11-01T07:22:16.031Z,8.17
2017-11-01T07:24:45.513Z,7.83
2017-11-01T07:27:14.907Z,9.47
2017-11-01T07:29:43.490Z,8.13
2017-11-01T07:32:12.580Z,8.97
2017-11-01T07:34:41.178Z,8.70
2017-11-01T07:37:10.880Z,9.40
2017-11-01T07:39:39.724Z,10.47
2017-11-01T07:42:08.371Z,10.00
2017-11-01T07:44:37.953Z,8.00
2017-11-01T07:47:06.593Z,9.23
2017-11-01T07:49:35.212Z,9.57
2017-11-01T07:52:03.820Z,9.80
2017-11-01T07:54:32.495Z,9.70
2017-11-01T07:57:01.736Z,9.40
2017-11-01T07:59:30.408Z,8.77
2017-11-01T08:01:59.997Z,10.47
2017-11-01T08:04:29.544Z,9.83
2017-11-01T08:06:58.954Z,10.87
2017-11-01T08:09:28.028Z,10.40
2017-11-01T08:11:56.619Z,10.00
2017-11-01T08:14:26.402Z,9.50
2017-11-01T08:16:56.381Z,10.60
2017-11-01T08:19:24.973Z,11.53
2017-11-01T08:21:54.002Z,8.23
2017-11-01T08:24:23.568Z,9.70
2017-11-01T08:26:52.212Z,10.40
2017-11-01T08:29:21.959Z,12.23
2017-11-01T08:31:50.594Z,12.27
2017-11-01T08:34:20.599Z,12.53
2017-11-01T08:36:50.029Z,11.97
2017-11-01T08:39:19.112Z,13.33
2017-11-01T08:41:49.323Z,13.77
2017-11-01T08:44:18.683Z,14.23
2017-11-01T08:46:47.586Z,12.60
2017-11-01T08:49:16.278Z,13.03
2017-11-01T08:51:45.082Z,12.50
2017-11-01T08:54:14.572Z,12.87
2017-11-01T08:56:44.896Z,11.87
2017-11-01T08:59:15.773Z,12.80
2017-11-01T09:01:44.939Z,12.23
2017-11-01T09:04:14.824Z,11.43
2017-11-01T09:06:43.462Z,13.10
2017-11-01T09:09:13.098Z,12.50
2017-11-01T09:11:41.758Z,12.57
2017-11-01T09:14:10.560Z,12.43
2017-11-01T09:16:39.349Z,11.00
2017-11-01T09:19:07.973Z,14.67
2017-11-01T09:21:36.640Z,12.20
2017-11-01T09:24:05.682Z,13.70
2017-11-01T09:26:34.662Z,15.03
2017-11-01T09:29:03.310Z,11.37
2017-11-01T09:31:32.021Z,12.03
2017-11-01T09:34:00.669Z,15.73
2017-11-01T09:36:29.303Z,12.40
2017-11-01T09:38:58.089Z,16.70
2017-11-01T09:41:26.799Z,14.03
2017-11-01T09:43:56.127Z,13.60
2017-11-01T09:46:24.870Z,12.07
2017-11-01T09:48:53.510Z,11.27
2017-11-01T09:51:22.110Z,12.30
2017-11-01T09:53:52.663Z,12.40
2017-11-01T09:56:22.349Z,10.73
2017-11-01T09:58:51.129Z,10.87
2017-11-01T10:01:20.792Z,10.47
2017-11-01T10:03:49.456Z,11.60
2017-11-01T10:06:18.130Z,14.30
2017-11-01T10:08:46.953Z,9.57
2017-11-01T10:11:16.390Z,8.27
2017-11-01T10:13:45.055Z,8.17
2017-11-01T10:16:14.006Z,9.70
2017-11-01T10:18:42.837Z,11.90
2017-11-01T10:21:11.532Z,11.07
2017-11-01T10:23:40.261Z,9.13
2017-11-01T10:26:08.943Z,13.50
2017-11-01T10:28:38.591Z,10.30
2017-11-01T10:31:08.371Z,12.30
2017-11-01T10:33:37.076Z,10.07
2017-11-01T10:36:06.495Z,7.97
2017-11-01T10:38:35.467Z,9.57
2017-11-01T10:41:04.210Z,8.83
2017-11-01T10:43:35.173Z,9.87
2017-11-01T10:46:04.446Z,8.77
2017-11-01T10:48:33.232Z,11.37
2017-11-01T10:51:02.088Z,10.20
2017-11-01T10:53:31.188Z,8.00
2017-11-01T10:56:00.001Z,10.63
2017-11-01T10:58:29.030Z,12.77
2017-11-01T11:00:58.683Z,10.33
2017-11-01T11:03:28.070Z,10.30
2017-11-01T11:05:58.871Z,8.67
2017-11-01T11:08:28.168Z,9.30
2017-11-01T11:10:57.239Z,10.20
2017-11-01T11:13:26.773Z,11.23
2017-11-01T11:15:55.544Z,10.73
2017-11-01T11:18:24.197Z,9.73
2017-11-01T11:20:52.881Z,7.50
2017-11-01T11:23:21.801Z,9.80
2017-11-01T11:25:50.467Z,7.60
2017-11-01T11:28:19.146Z,8.40
2017-11-01T11:30:48.760Z,7.20
2017-11-01T11:33:18.322Z,8.87
2017-11-01T11:35:48.210Z,7.30
2017-11-01T11:38:17.369Z,8.13
2017-11-01T11:40:46.103Z,8.37
2017-11-01T11:43:14.861Z,9.60
2017-11-01T11:45:43.954Z,9.87
2017-11-01T11:48:13.525Z,10.30
2017-11-01T11:50:42.980Z,10.83
2017-11-01T11:53:11.835Z,6.90
2017-11-01T11:55:40.501Z,7.87
2017-11-01T11:58:10.058Z,5.60
2017-11-01T12:00:39.017Z,6.53
2017-11-01T12:03:08.522Z,7.80
2017-11-01T12:05:38.294Z,7.47
2017-11-01T12:08:06.964Z,6.03
2017-11-01T12:10:35.627Z,7.57
2017-11-01T12:13:04.327Z,7.67
2017-11-01T12:15:33.443Z,7.57
2017-11-01T12:18:02.058Z,5.87
2017-11-01T12:20:31.379Z,6.33
2017-11-01T12:23:00.471Z,7.07
2017-11-01T12:25:30.566Z,6.37
2017-11-01T12:28:01.159Z,5.50
2017-11-01T12:30:30.557Z,7.90
2017-11-01T12:33:01.067Z,7.10
2017-11-01T12:35:31.277Z,6.00
2017-11-01T12:38:00.726Z,6.30
2017-11-01T12:40:32.584Z,5.50
2017-11-01T12:43:02.192Z,6.10
2017-11-01T12:45:31.546Z,6.93
2017-11-01T12:48:01.073Z,5.13
2017-11-01T12:50:29.615Z,6.60
2017-11-01T12:52:59.018Z,6.07
2017-11-01T12:55:28.070Z,4.83
2017-11-01T12:57:56.612Z,8.00
2017-11-01T13:00:25.115Z,6.03
2017-11-01T13:02:54.081Z,4.90
2017-11-01T13:05:23.695Z,5.83
2017-11-01T13:07:53.752Z,6.30
2017-11-01T13:10:24.299Z,5.03
2017-11-01T13:12:52.911Z,5.20
2017-11-01T13:15:22.234Z,6.43
2017-11-01T13:17:51.215Z,6.73
2017-11-01T13:20:20.792Z,5.40
2017-11-01T13:22:49.348Z,4.93
2017-11-01T13:25:18.890Z,6.40
2017-11-01T13:27:47.471Z,4.80
2017-11-01T13:30:16.002Z,6.60
2017-11-01T13:32:45.066Z,6.80
2017-11-01T13:35:13.588Z,6.37
2017-11-01T13:37:43.167Z,5.60
2017-11-01T13:40:13.080Z,4.50
2017-11-01T13:42:42.536Z,5.90
2017-11-01T13:45:11.060Z,6.57
2017-11-01T13:47:40.770Z,5.40
2017-11-01T13:50:10.261Z,6.97
2017-11-01T13:52:39.579Z,6.63
2017-11-01T13:55:08.258Z,7.57
2017-11-01T13:57:37.623Z,5.00
2017-11-01T14:00:06.924Z,5.00
2017-11-01T14:02:35.553Z,5.30
2017-11-01T14:05:04.141Z,5.40
2017-11-01T14:07:32.649Z,4.77
2017-11-01T14:10:02.102Z,5.90
2017-11-01T14:12:31.426Z,6.03
2017-11-01T14:14:59.958Z,5.50
2017-11-01T14:17:28.562Z,5.00
2017-11-01T14:19:57.697Z,7.03
2017-11-01T14:22:27.204Z,4.13
2017-11-01T14:24:57.358Z,7.80
2017-11-01T14:27:26.491Z,6.80
2017-11-01T14:29:56.119Z,6.27
2017-11-01T14:32:24.685Z,6.67
2017-11-01T14:34:54.395Z,4.50
2017-11-01T14:37:24.106Z,5.27
2017-11-01T14:39:53.711Z,5.80
2017-11-01T14:42:23.053Z,5.00
2017-11-01T14:44:51.884Z,6.07
2017-11-01T14:47:22.650Z,5.30
2017-11-01T14:49:51.236Z,5.80
2017-11-01T14:52:19.797Z,5.90
2017-11-01T14:54:49.526Z,5.40
2017-11-01T14:57:19.499Z,4.57
2017-11-01T14:59:48.340Z,5.00
2017-11-01T15:02:16.914Z,5.73
2017-11-01T15:04:45.481Z,6.03
2017-11-01T15:07:14.111Z,5.90
2017-11-01T15:09:42.941Z,4.50
2017-11-01T15:12:11.910Z,5.17
2017-11-01T15:14:41.476Z,5.53
2017-11-01T15:17:10.288Z,5.67
2017-11-01T15:19:38.829Z,4.70
2017-11-01T15:22:08.746Z,5.80
2017-11-01T15:24:38.468Z,6.00
2017-11-01T15:27:07.807Z,6.33
2017-11-01T15:29:36.426Z,6.77
2017-11-01T15:32:04.992Z,4.73
2017-11-01T15:34:34.831Z,5.87
2017-11-01T15:37:04.341Z,4.90
2017-11-01T15:39:33.060Z,5.63
2017-11-01T15:42:01.701Z,5.80
2017-11-01T15:44:30.263Z,5.80
2017-11-01T15:46:58.954Z,5.43
2017-11-01T15:49:27.652Z,5.20
2017-11-01T15:51:57.111Z,5.00
2017-11-01T15:54:25.655Z,5.30
2017-11-01T15:56:55.066Z,5.73
2017-11-01T15:59:24.387Z,4.60
2017-11-01T16:01:53.004Z,5.30
2017-11-01T16:04:21.765Z,5.50
2017-11-01T16:06:51.020Z,5.70
2017-11-01T16:09:21.142Z,4.97
2017-11-01T16:11:49.777Z,6.07
2017-11-01T16:14:18.825Z,5.60
2017-11-01T16:16:48.153Z,5.33
2017-11-01T16:19:16.746Z,5.30
2017-11-01T16:21:46.110Z,5.90
2017-11-01T16:24:15.608Z,6.30
2017-11-01T16:26:44.934Z,7.00
2017-11-01T16:29:14.264Z,5.60
2017-11-01T16:31:43.088Z,6.87
2017-11-01T16:34:11.678Z,6.00
2017-11-01T16:36:41.752Z,7.23
2017-11-01T16:39:10.695Z,6.17
2017-11-01T16:41:39.248Z,6.70
2017-11-01T16:44:07.884Z,6.10
2017-11-01T16:46:37.119Z,6.93
2017-11-01T16:49:06.359Z,7.00
2017-11-01T16:51:35.765Z,7.10
2017-11-01T16:54:05.362Z,8.53
2017-11-01T16:56:34.766Z,7.50
2017-11-01T16:59:03.313Z,9.00
2017-11-01T17:01:33.463Z,7.37
2017-11-01T17:04:03.185Z,7.57
2017-11-01T17:06:31.717Z,8.67
2017-11-01T17:09:00.737Z,8.63
2017-11-01T17:11:29.295Z,7.77
2017-11-01T17:13:57.822Z,7.83
2017-11-01T17:16:27.123Z,8.47
2017-11-01T17:18:55.771Z,8.43
2017-11-01T17:21:25.446Z,8.00
2017-11-01T17:23:54.054Z,8.87
2017-11-01T17:26:22.617Z,9.30
2017-11-01T17:28:51.240Z,8.40
2017-11-01T17:31:19.927Z,9.53
2017-11-01T17:33:48.441Z,9.13
2017-11-01T17:36:17.758Z,7.90
2017-11-01T17:38:46.374Z,7.83
2017-11-01T17:41:15.118Z,8.13
2017-11-01T17:43:44.916Z,8.00
2017-11-01T17:46:13.595Z,8.53
2017-11-01T17:48:42.223Z,9.83
2017-11-01T17:51:10.870Z,7.80
2017-11-01T17:53:40.374Z,7.63
2017-11-01T17:56:08.918Z,9.13
2017-11-01T17:58:37.527Z,7.93
2017-11-01T18:01:06.388Z,8.40
2017-11-01T18:03:34.915Z,9.60
2017-11-01T18:06:04.421Z,7.57
2017-11-01T18:08:33.116Z,8.13
2017-11-01T18:11:02.470Z,10.10
2017-11-01T18:13:30.991Z,8.10
2017-11-01T18:15:59.654Z,8.40
2017-11-01T18:18:28.443Z,7.50
2017-11-01T18:20:56.933Z,8.70
2017-11-01T18:23:25.621Z,9.50
2017-11-01T18:25:54.164Z,9.00
2017-11-01T18:28:22.667Z,8.40
2017-11-01T18:30:51.287Z,9.97
2017-11-01T18:33:21.453Z,9.23
2017-11-01T18:35:49.987Z,7.97
2017-11-01T18:38:19.451Z,10.20
2017-11-01T18:40:48.636Z,9.20
2017-11-01T18:43:17.185Z,9.60
2017-11-01T18:45:46.774Z,11.10
2017-11-01T18:48:16.115Z,10.30
2017-11-01T18:50:44.677Z,9.87
2017-11-01T18:53:13.372Z,8.77
2017-11-01T18:55:42.011Z,9.87
2017-11-01T18:58:10.517Z,45.97
2017-11-01T19:00:39.906Z,12.93
2017-11-01T19:03:09.195Z,9.43
2017-11-01T19:05:37.805Z,11.53
2017-11-01T19:08:07.166Z,10.27
2017-11-01T19:10:36.477Z,9.70
2017-11-01T19:13:04.974Z,9.70
2017-11-01T19:15:33.908Z,10.10
2017-11-01T19:18:02.397Z,11.27
2017-11-01T19:20:31.243Z,10.07
2017-11-01T19:22:59.819Z,10.70
2017-11-01T19:25:28.288Z,10.77
2017-11-01T19:27:56.814Z,10.63
2017-11-01T19:30:25.463Z,11.30
2017-11-01T19:32:53.977Z,10.30
2017-11-01T19:35:23.281Z,9.70
2017-11-01T19:37:52.639Z,10.37
2017-11-01T19:40:21.157Z,9.93
2017-11-01T19:42:50.342Z,11.40
2017-11-01T19:45:19.961Z,12.20
2017-11-01T19:47:48.500Z,10.43
2017-11-01T19:50:17.016Z,12.13
2017-11-01T19:52:46.511Z,13.27
2017-11-01T19:55:15.771Z,14.10
2017-11-01T19:57:44.349Z,11.97
2017-11-01T20:00:13.419Z,10.50
2017-11-01T20:02:41.914Z,12.10
2017-11-01T20:05:10.433Z,15.60
2017-11-01T20:07:39.373Z,14.20
2017-11-01T20:10:08.001Z,14.40
2017-11-01T20:12:36.513Z,9.47
2017-11-01T20:15:06.011Z,12.70
2017-11-01T20:17:34.543Z,14.03
2017-11-01T20:20:03.056Z,12.43
2017-11-01T20:22:33.014Z,11.53
2017-11-01T20:25:02.357Z,10.87
2017-11-01T20:27:30.895Z,11.00
2017-11-01T20:30:00.601Z,12.30
2017-11-01T20:32:29.669Z,12.37
2017-11-01T20:34:59.902Z,11.63
2017-11-01T20:37:28.612Z,10.50
2017-11-01T20:39:57.200Z,10.53
2017-11-01T20:42:26.489Z,12.07
2017-11-01T20:44:55.068Z,11.40
2017-11-01T20:47:24.383Z,11.23
2017-11-01T20:49:52.888Z,12.00
2017-11-01T20:52:21.489Z,11.57
2017-11-01T20:54:50.020Z,10.00
2017-11-01T20:57:19.293Z,11.10
2017-11-01T20:59:49.038Z,11.50
2017-11-01T21:02:17.544Z,10.77
2017-11-01T21:04:46.062Z,10.23
2017-11-01T21:07:14.983Z,11.40
2017-11-01T21:09:44.265Z,12.90
2017-11-01T21:12:12.853Z,12.33
2017-11-01T21:14:41.476Z,12.20
2017-11-01T21:17:10.008Z,12.07
2017-11-01T21:19:39.304Z,12.07
2017-11-01T21:22:08.869Z,12.87
2017-11-01T21:24:38.031Z,12.40
2017-11-01T21:27:07.363Z,12.57
2017-11-01T21:29:36.126Z,12.73
2017-11-01T21:32:05.466Z,13.00
2017-11-01T21:34:33.976Z,11.73
2017-11-01T21:37:03.657Z,13.30
2017-11-01T21:39:32.212Z,11.20
2017-11-01T21:42:00.767Z,10.80
2017-11-01T21:44:29.667Z,10.30
2017-11-01T21:46:58.255Z,10.47
2017-11-01T21:49:27.983Z,11.87
2017-11-01T21:51:56.564Z,11.00
2017-11-01T21:54:25.856Z,10.53
2017-11-01T21:56:55.693Z,11.60
2017-11-01T21:59:25.094Z,10.00
2017-11-01T22:01:53.745Z,10.90
2017-11-01T22:04:23.048Z,10.13
2017-11-01T22:06:51.941Z,11.07
2017-11-01T22:09:21.226Z,12.73
2017-11-01T22:11:49.729Z,11.20
2017-11-01T22:14:19.342Z,11.50
2017-11-01T22:16:48.585Z,11.23
2017-11-01T22:19:17.862Z,11.50
2017-11-01T22:21:46.491Z,12.67
2017-11-01T22:24:15.034Z,11.40
2017-11-01T22:26:43.844Z,11.63
2017-11-01T22:29:12.539Z,11.53
2017-11-01T22:31:41.122Z,11.90
2017-11-01T22:34:09.684Z,11.50
2017-11-01T22:36:38.278Z,11.07
2017-11-01T22:39:06.939Z,12.50
2017-11-01T22:41:35.448Z,10.60
2017-11-01T22:44:04.273Z,11.10
2017-11-01T22:46:32.859Z,12.00
2017-11-01T22:49:02.141Z,11.03
2017-11-01T22:51:31.058Z,11.80
2017-11-01T22:53:59.560Z,13.90
2017-11-01T22:56:28.020Z,12.90
2017-11-01T22:58:56.904Z,12.73
2017-11-01T23:01:25.467Z,12.10
2017-11-01T23:03:54.980Z,10.83
2017-11-01T23:06:23.672Z,11.87
2017-11-01T23:08:52.919Z,11.60
2017-11-01T23:11:21.395Z,12.00
2017-11-01T23:13:50.226Z,11.40
2017-11-01T23:16:18.761Z,12.40
2017-11-01T23:18:47.255Z,12.43
2017-11-01T23:21:16.023Z,13.00
2017-11-01T23:23:44.520Z,11.13
2017-11-01T23:26:13.014Z,12.40
2017-11-01T23:28:42.119Z,11.07
2017-11-01T23:31:10.651Z,13.87
2017-11-01T23:33:39.127Z,12.37
2017-11-01T23:36:08.626Z,11.83
2017-11-01T23:38:37.882Z,11.00
2017-11-01T23:41:06.395Z,11.20
2017-11-01T23:43:35.822Z,11.97
2017-11-01T23:46:05.083Z,13.53
2017-11-01T23:48:33.572Z,12.03
2017-11-01T23:51:02.120Z,11.93
2017-11-01T23:53:30.907Z,10.77
2017-11-01T23:55:59.411Z,9.80
2017-11-01T23:58:28.539Z,11.40
